Time;durP1;ratioP1;P1;durP2;ratioP2;P2;SDS_P1;SDS_P2;PMS_P1;PMS_P2;Temp;Humidity;BMP_temperature;BMP_pressure;BME280_temperature;BME280_humidity;BME280_pressure;Samples;Min_cycle;Max_cycle;Signal;HPM_P1;HPM_P2
2021/08/21 00:01:01;;;;;;;11.60;10.13;;;28.00;43.20;;;;;;4309424;61;21061;-28
2021/08/21 00:06:01;;;;;;;11.82;9.80;;;28.00;43.20;;;;;;4299766;61;21554;-29
2021/08/21 00:11:03;;;;;;;11.27;9.55;;;28.00;43.20;;;;;;4297676;60;21076;-29
2021/08/21 00:16:04;;;;;;;9.90;8.90;;;28.00;43.20;;;;;;4320979;60;21055;-26
2021/08/21 00:21:05;;;;;;;11.60;10.13;;;28.10;43.30;;;;;;4303784;60;21049;-30
2021/08/21 00:26:06;;;;;;;10.70;9.50;;;28.00;43.30;;;;;;4303717;61;21207;-33
2021/08/21 00:31:08;;;;;;;10.70;9.57;;;28.00;43.30;;;;;;4316040;60;21173;-30
2021/08/21 00:36:08;;;;;;;10.30;9.25;;;28.00;43.60;;;;;;4304388;61;21125;-30
2021/08/21 00:41:10;;;;;;;10.73;9.55;;;28.00;43.40;;;;;;4296062;62;21177;-29
2021/08/21 00:46:10;;;;;;;10.80;9.68;;;28.00;43.40;;;;;;4329864;61;21132;-32
2021/08/21 00:51:11;;;;;;;10.30;9.20;;;28.00;43.30;;;;;;4295647;65;21090;-29
2021/08/21 00:56:12;;;;;;;9.85;8.85;;;28.00;43.40;;;;;;4297445;61;21585;-31
2021/08/21 01:01:13;;;;;;;10.50;9.18;;;28.00;43.50;;;;;;4301863;61;21530;-30
2021/08/21 01:06:14;;;;;;;9.88;8.88;;;28.00;43.40;;;;;;4364180;61;21076;-27
2021/08/21 01:11:15;;;;;;;9.63;8.63;;;28.00;44.10;;;;;;4297595;61;21121;-28
2021/08/21 01:16:16;;;;;;;11.07;9.98;;;28.00;43.40;;;;;;4351277;61;21064;-31
2021/08/21 01:21:17;;;;;;;10.27;9.27;;;28.00;43.50;;;;;;4326108;60;21121;-29
2021/08/21 01:26:18;;;;;;;9.80;8.80;;;28.00;43.40;;;;;;4309952;61;21263;-29
2021/08/21 01:31:19;;;;;;;10.07;8.90;;;28.00;43.50;;;;;;4309589;61;21602;-31
2021/08/21 01:36:19;;;;;;;9.73;8.48;;;28.00;43.60;;;;;;4300243;61;21129;-30
2021/08/21 01:41:20;;;;;;;9.77;8.75;;;28.00;43.50;;;;;;4307955;61;21089;-26
2021/08/21 01:46:21;;;;;;;10.13;8.93;;;28.00;43.50;;;;;;4305741;61;21081;-27
2021/08/21 01:51:23;;;;;;;9.82;8.77;;;28.00;43.50;;;;;;4320947;61;21530;-30
2021/08/21 01:56:25;;;;;;;9.55;8.65;;;28.00;43.70;;;;;;4323563;61;21649;-30
2021/08/21 02:01:25;;;;;;;9.90;8.57;;;28.00;43.60;;;;;;4325538;60;21084;-28
2021/08/21 02:06:26;;;;;;;9.20;8.30;;;28.00;43.60;;;;;;4305477;61;21049;-31
2021/08/21 02:11:27;;;;;;;9.32;8.32;;;28.00;43.60;;;;;;4295805;62;21142;-29
2021/08/21 02:16:28;;;;;;;9.10;8.20;;;28.00;43.70;;;;;;4329787;61;21077;-27
2021/08/21 02:21:29;;;;;;;9.02;8.13;;;27.90;43.60;;;;;;4308468;61;21209;-29
2021/08/21 02:26:30;;;;;;;9.32;7.85;;;27.90;43.60;;;;;;4298881;61;21626;-25
2021/08/21 02:31:30;;;;;;;8.95;7.75;;;27.90;43.70;;;;;;4323387;61;21101;-30
2021/08/21 02:36:32;;;;;;;8.93;8.02;;;27.90;43.60;;;;;;4304635;61;21084;-30
2021/08/21 02:41:34;;;;;;;9.57;8.10;;;27.90;43.60;;;;;;4322694;60;21128;-29
2021/08/21 02:46:35;;;;;;;8.77;7.95;;;28.00;43.70;;;;;;4307798;61;21076;-31
2021/08/21 02:51:36;;;;;;;8.82;7.82;;;28.00;43.70;;;;;;4305442;61;21084;-29
2021/08/21 02:56:36;;;;;;;8.48;7.60;;;27.90;43.70;;;;;;4296043;65;21102;-25
2021/08/21 03:01:37;;;;;;;8.65;7.70;;;27.90;43.80;;;;;;4319067;61;21157;-33
2021/08/21 03:06:38;;;;;;;8.38;7.57;;;27.90;43.80;;;;;;4319807;61;22402;-28
2021/08/21 03:11:39;;;;;;;8.25;7.35;;;27.90;44.40;;;;;;4299048;61;21538;-30
2021/08/21 03:16:40;;;;;;;7.70;7.00;;;27.90;43.80;;;;;;4309659;61;21089;-31
2021/08/21 03:21:41;;;;;;;8.07;7.28;;;27.90;43.80;;;;;;4296126;65;21100;-29
2021/08/21 03:26:43;;;;;;;8.20;7.03;;;27.90;43.80;;;;;;4323272;60;21114;-27
2021/08/21 03:31:44;;;;;;;8.02;7.22;;;27.90;44.30;;;;;;4297045;64;21104;-31
2021/08/21 03:36:45;;;;;;;7.65;6.82;;;27.90;43.80;;;;;;4296072;62;21084;-30
2021/08/21 03:41:46;;;;;;;7.90;7.10;;;27.90;43.70;;;;;;4295853;61;22310;-24
2021/08/21 03:46:47;;;;;;;8.23;6.50;;;27.90;43.70;;;;;;4309982;60;21153;-29
2021/08/21 03:51:48;;;;;;;7.15;6.45;;;27.90;43.70;;;;;;4305831;61;21088;-28
2021/08/21 03:56:48;;;;;;;8.00;6.75;;;27.90;43.70;;;;;;4298819;61;22153;-28
2021/08/21 04:01:49;;;;;;;7.32;6.20;;;27.90;43.80;;;;;;4311430;61;21132;-27
2021/08/21 04:06:50;;;;;;;6.78;6.18;;;27.90;43.70;;;;;;4306255;61;21060;-29
2021/08/21 04:11:52;;;;;;;7.72;6.70;;;27.90;43.80;;;;;;4299697;60;21053;-25
2021/08/21 04:16:53;;;;;;;7.18;6.47;;;27.90;43.70;;;;;;4313306;61;22408;-26
2021/08/21 04:21:54;;;;;;;8.43;6.32;;;27.80;43.70;;;;;;4326379;61;21184;-29
2021/08/21 04:26:55;;;;;;;7.07;6.37;;;27.80;43.80;;;;;;4297655;61;22548;-28
2021/08/21 04:31:56;;;;;;;6.97;6.00;;;27.80;43.60;;;;;;4306611;61;21060;-32
2021/08/21 04:36:57;;;;;;;7.75;6.07;;;27.80;43.70;;;;;;4306371;61;21570;-26
2021/08/21 04:41:59;;;;;;;6.50;5.90;;;27.80;44.40;;;;;;4358176;60;21148;-27
2021/08/21 04:47:00;;;;;;;7.93;6.10;;;27.80;43.70;;;;;;4328080;61;21196;-30
2021/08/21 04:52:01;;;;;;;6.50;5.90;;;27.80;43.80;;;;;;4304746;61;21096;-31
2021/08/21 04:57:03;;;;;;;8.90;5.95;;;27.80;43.70;;;;;;4297607;60;21076;-30
2021/08/21 05:02:04;;;;;;;6.30;5.70;;;27.80;43.70;;;;;;4298251;60;21179;-29
2021/08/21 05:07:05;;;;;;;6.55;5.95;;;27.70;43.60;;;;;;4300930;61;21180;-30
2021/08/21 05:12:07;;;;;;;6.20;5.60;;;27.70;43.60;;;;;;4309756;60;21240;-30
2021/08/21 05:17:08;;;;;;;7.35;6.15;;;27.80;43.70;;;;;;4331160;61;21073;-23
2021/08/21 05:22:21;;;;;;;6.03;5.43;;;27.80;43.60;;;;;;4303955;60;21089;-33
2021/08/21 05:27:23;;;;;;;7.00;5.80;;;27.80;43.60;;;;;;4300213;61;21607;-23
2021/08/21 05:32:24;;;;;;;7.30;5.60;;;27.80;43.70;;;;;;4327204;60;21057;-31
2021/08/21 05:37:25;;;;;;;9.02;5.90;;;27.70;43.50;;;;;;4315035;61;21049;-28
2021/08/21 05:42:26;;;;;;;7.30;6.57;;;27.70;43.50;;;;;;4302182;61;21092;-25
2021/08/21 05:47:26;;;;;;;6.70;6.07;;;27.70;43.50;;;;;;4295295;65;21193;-28
2021/08/21 05:52:28;;;;;;;9.95;6.20;;;27.70;43.50;;;;;;4311304;61;21069;-25
2021/08/21 05:57:29;;;;;;;8.07;5.60;;;27.70;43.50;;;;;;4315130;60;21459;-26
2021/08/21 06:02:30;;;;;;;7.22;5.90;;;27.70;43.40;;;;;;4327030;61;21586;-26
2021/08/21 06:07:31;;;;;;;6.37;5.35;;;27.70;43.30;;;;;;4336213;61;21112;-22
2021/08/21 06:12:33;;;;;;;6.53;5.85;;;27.70;43.40;;;;;;4309175;60;21068;-26
2021/08/21 06:17:34;;;;;;;6.78;5.97;;;27.70;43.50;;;;;;4313394;61;21411;-28
2021/08/21 06:22:34;;;;;;;6.65;6.00;;;27.70;43.40;;;;;;4295557;65;21084;-27
2021/08/21 06:27:36;;;;;;;6.53;5.78;;;27.70;43.50;;;;;;4313948;61;21186;-27
2021/08/21 06:32:37;;;;;;;7.68;6.03;;;27.70;43.50;;;;;;4314063;60;21128;-27
2021/08/21 06:37:38;;;;;;;7.25;6.32;;;27.70;43.50;;;;;;4302128;61;21110;-27
2021/08/21 06:42:39;;;;;;;6.50;5.90;;;27.70;43.50;;;;;;4298419;60;21165;-26
2021/08/21 06:47:40;;;;;;;6.75;6.05;;;27.70;43.40;;;;;;4303943;61;21132;-28
2021/08/21 06:52:41;;;;;;;7.43;6.07;;;27.70;43.40;;;;;;4334230;61;21600;-20
2021/08/21 06:57:42;;;;;;;6.47;5.80;;;27.70;43.50;;;;;;4295584;61;21588;-27
2021/08/21 07:02:43;;;;;;;6.55;5.70;;;27.70;43.50;;;;;;4295447;65;21069;-28
2021/08/21 07:07:44;;;;;;;6.57;5.95;;;27.70;43.50;;;;;;4295013;65;21138;-25
2021/08/21 07:12:45;;;;;;;7.20;6.05;;;27.70;43.60;;;;;;4301064;61;21057;-26
2021/08/21 07:17:48;;;;;;;8.95;6.87;;;27.70;43.50;;;;;;4313392;61;21169;-27
2021/08/21 07:22:49;;;;;;;9.15;7.10;;;27.70;43.50;;;;;;4334985;61;21108;-30
2021/08/21 07:27:50;;;;;;;8.77;6.47;;;27.70;43.50;;;;;;4295291;61;21124;-31
2021/08/21 07:32:51;;;;;;;9.40;7.18;;;27.70;43.50;;;;;;4295691;65;21110;-29
2021/08/21 07:37:51;;;;;;;10.02;7.60;;;27.70;43.40;;;;;;4333976;61;21538;-30
2021/08/21 07:42:52;;;;;;;10.02;7.15;;;27.70;43.50;;;;;;4362818;61;21118;-26
2021/08/21 07:47:53;;;;;;;8.63;7.40;;;27.70;43.60;;;;;;4313989;61;21101;-29
2021/08/21 07:52:54;;;;;;;12.27;7.87;;;27.70;43.60;;;;;;4310469;61;21060;-28
2021/08/21 07:57:55;;;;;;;9.38;7.15;;;27.70;43.50;;;;;;4302009;61;21610;-30
2021/08/21 08:02:55;;;;;;;10.30;7.22;;;27.70;43.50;;;;;;4298991;61;21045;-30
2021/08/21 08:07:56;;;;;;;11.68;7.70;;;27.60;43.60;;;;;;4345295;61;21077;-30
2021/08/21 08:12:57;;;;;;;10.32;7.80;;;27.70;43.60;;;;;;4296022;61;21110;-31
2021/08/21 08:17:58;;;;;;;11.07;8.27;;;27.60;43.50;;;;;;4298661;60;21114;-29
2021/08/21 08:22:59;;;;;;;11.65;7.45;;;27.70;43.60;;;;;;4299186;61;21158;-28
2021/08/21 08:28:00;;;;;;;8.98;7.45;;;27.70;43.60;;;;;;4295185;65;21559;-22
2021/08/21 08:33:01;;;;;;;10.50;8.43;;;27.70;43.70;;;;;;4301340;61;21057;-28
2021/08/21 08:38:01;;;;;;;9.70;8.00;;;27.70;43.70;;;;;;4342933;60;21057;-29
2021/08/21 08:43:04;;;;;;;10.35;8.30;;;27.70;43.70;;;;;;4313464;61;21080;-25
2021/08/21 08:48:05;;;;;;;9.77;8.02;;;27.60;43.60;;;;;;4312344;61;21156;-32
2021/08/21 08:53:06;;;;;;;10.30;8.25;;;27.60;43.60;;;;;;4333652;60;21057;-29
2021/08/21 08:58:07;;;;;;;8.60;7.70;;;27.70;43.70;;;;;;4332816;61;21523;-30
2021/08/21 09:03:22;;;;;;;13.57;8.30;;;27.60;43.70;;;;;;4336699;60;21064;-31
2021/08/21 09:08:27;;;;;;;9.25;7.40;;;27.60;43.70;;;;;;4315651;60;21076;-29
2021/08/21 09:13:28;;;;;;;10.20;8.25;;;27.70;43.80;;;;;;4302247;60;21234;-28
2021/08/21 09:18:30;;;;;;;11.88;8.80;;;27.70;43.70;;;;;;4297011;65;22115;-32
2021/08/21 09:23:39;;;;;;;14.07;8.50;;;27.70;43.80;;;;;;4295470;62;21244;-31
2021/08/21 09:28:44;;;;;;;11.90;8.43;;;27.70;43.70;;;;;;4298640;60;21037;-34
2021/08/21 09:34:00;;;;;;;9.23;7.95;;;27.70;43.80;;;;;;4299562;60;21103;-27
2021/08/21 09:39:04;;;;;;;10.40;8.18;;;27.70;43.80;;;;;;4314720;60;21029;-30
2021/08/21 09:44:07;;;;;;;11.75;8.93;;;27.70;43.80;;;;;;4294625;65;21109;-31
2021/08/21 09:49:10;;;;;;;9.88;8.15;;;27.70;43.80;;;;;;4299974;60;21169;-30
2021/08/21 09:54:16;;;;;;;11.73;8.73;;;27.70;43.80;;;;;;4328084;60;21646;-32
2021/08/21 09:59:17;;;;;;;9.75;8.52;;;27.70;43.80;;;;;;4328589;60;21056;-31
2021/08/21 10:04:18;;;;;;;11.07;8.40;;;27.70;43.80;;;;;;4295520;65;21121;-29
2021/08/21 10:09:19;;;;;;;10.15;7.85;;;27.70;43.80;;;;;;4316353;61;21650;-27
2021/08/21 10:14:23;;;;;;;9.43;8.50;;;27.70;43.80;;;;;;4300673;61;21619;-29
2021/08/21 10:19:27;;;;;;;11.32;8.48;;;27.70;43.80;;;;;;4301416;60;21041;-27
2021/08/21 10:24:48;;;;;;;9.15;8.07;;;27.70;43.80;;;;;;4300228;61;21085;-24
2021/08/21 10:36:56;;;;;;;9.40;8.40;;;27.70;43.80;;;;;;4320801;60;22024;-29
2021/08/21 10:41:57;;;;;;;10.52;8.65;;;27.70;43.90;;;;;;4327099;60;21092;-31
2021/08/21 10:46:58;;;;;;;9.07;8.05;;;27.70;43.90;;;;;;4321246;60;21142;-31
2021/08/21 10:51:58;;;;;;;11.05;8.77;;;27.70;43.90;;;;;;4308378;61;21675;-34
2021/08/21 10:57:30;;;;;;;9.02;7.90;;;27.70;44.00;;;;;;4299988;61;21137;-30
2021/08/21 11:02:40;;;;;;;10.02;8.13;;;27.70;43.90;;;;;;4311214;60;21064;-28
2021/08/21 11:07:42;;;;;;;9.80;8.40;;;27.70;43.90;;;;;;4300830;61;21099;-23
2021/08/21 11:12:47;;;;;;;9.48;8.43;;;27.70;43.90;;;;;;4341854;60;21573;-31
2021/08/21 11:17:49;;;;;;;9.65;8.43;;;27.70;43.90;;;;;;4302486;60;21061;-31
2021/08/21 11:23:51;;;;;;;9.48;8.32;;;27.70;43.90;;;;;;4296975;61;21665;-32
2021/08/21 11:29:11;;;;;;;9.93;8.10;;;27.70;43.90;;;;;;4309314;60;21538;-28
2021/08/21 11:34:11;;;;;;;10.25;8.10;;;27.70;43.90;;;;;;4313610;61;21069;-25
2021/08/21 11:39:15;;;;;;;10.07;7.60;;;27.70;44.00;;;;;;4311737;60;21604;-24
2021/08/21 11:44:26;;;;;;;8.98;8.07;;;27.80;44.00;;;;;;4300806;61;21142;-28
2021/08/21 11:49:29;;;;;;;8.07;7.28;;;27.70;44.00;;;;;;4310055;60;21127;-30
2021/08/21 11:54:30;;;;;;;9.25;7.97;;;27.70;44.00;;;;;;4333974;61;21057;-26
2021/08/21 11:59:31;;;;;;;9.55;8.40;;;27.70;44.00;;;;;;4303952;61;21555;-27
2021/08/21 12:04:33;;;;;;;9.25;8.27;;;27.70;43.90;;;;;;4296725;61;21076;-29
2021/08/21 12:09:34;;;;;;;8.80;7.47;;;27.80;44.00;;;;;;4296056;65;21627;-28
2021/08/21 12:14:38;;;;;;;10.05;7.78;;;27.70;44.00;;;;;;4305256;61;21072;-31
2021/08/21 12:19:39;;;;;;;8.85;7.62;;;27.70;44.00;;;;;;4303897;60;21593;-29
2021/08/21 12:24:58;;;;;;;9.57;7.97;;;27.70;44.00;;;;;;4313230;61;21069;-20
2021/08/21 12:30:14;;;;;;;8.32;7.53;;;27.70;44.00;;;;;;4322754;60;21085;-30
2021/08/21 12:35:20;;;;;;;9.35;7.87;;;27.80;44.00;;;;;;4333476;60;21062;-23
2021/08/21 12:40:21;;;;;;;9.23;7.22;;;27.80;44.00;;;;;;4296252;64;21032;-27
2021/08/21 12:45:25;;;;;;;8.45;7.53;;;27.70;44.00;;;;;;4333848;61;21057;-31
2021/08/21 12:50:26;;;;;;;8.40;7.60;;;27.80;44.10;;;;;;4329574;61;21100;-34
2021/08/21 12:55:27;;;;;;;8.20;7.37;;;27.80;44.10;;;;;;4297149;61;21156;-31
2021/08/21 13:00:28;;;;;;;8.05;7.18;;;27.80;44.10;;;;;;4314323;60;21056;-30
2021/08/21 13:05:29;;;;;;;8.43;7.53;;;27.80;44.10;;;;;;4319026;61;21118;-31
2021/08/21 13:10:31;;;;;;;8.60;7.70;;;27.80;44.10;;;;;;4323542;61;21187;-30
2021/08/21 13:15:33;;;;;;;8.15;7.35;;;27.80;44.10;;;;;;4298624;61;21554;-31
2021/08/21 13:20:34;;;;;;;8.90;7.55;;;27.80;44.10;;;;;;4304127;61;21065;-26
2021/08/21 13:25:34;;;;;;;8.50;7.62;;;27.80;44.10;;;;;;4300872;60;21515;-31
2021/08/21 13:30:35;;;;;;;8.18;6.97;;;27.80;44.10;;;;;;4301598;61;21531;-32
2021/08/21 13:35:39;;;;;;;7.70;6.90;;;27.80;44.10;;;;;;4301848;61;21073;-32
2021/08/21 13:40:40;;;;;;;7.78;6.97;;;27.80;44.10;;;;;;4299546;60;21060;-29
2021/08/21 13:45:41;;;;;;;9.13;7.47;;;27.80;44.10;;;;;;4301679;61;21094;-28
2021/08/21 13:50:43;;;;;;;7.85;7.05;;;27.80;44.10;;;;;;4318917;61;21534;-28
2021/08/21 13:55:43;;;;;;;8.32;7.35;;;27.80;44.10;;;;;;4298319;61;21730;-32
2021/08/21 14:00:44;;;;;;;7.72;6.90;;;27.80;44.10;;;;;;4304741;61;21041;-32
2021/08/21 14:05:45;;;;;;;7.80;7.00;;;27.80;44.10;;;;;;4320806;61;21223;-26
2021/08/21 14:10:46;;;;;;;8.00;7.20;;;27.80;44.10;;;;;;4332188;61;21068;-29
2021/08/21 14:15:47;;;;;;;7.85;7.05;;;27.80;44.20;;;;;;4320372;61;21563;-30
2021/08/21 14:20:48;;;;;;;8.20;7.40;;;27.80;44.10;;;;;;4301764;61;21098;-27
2021/08/21 14:25:48;;;;;;;8.15;7.35;;;27.80;44.10;;;;;;4321076;61;21150;-28
2021/08/21 14:30:55;;;;;;;8.45;7.10;;;27.80;44.10;;;;;;4314859;61;21053;-21
2021/08/21 14:35:55;;;;;;;7.78;6.97;;;27.80;44.20;;;;;;4320165;61;21660;-25
2021/08/21 14:40:56;;;;;;;7.60;6.90;;;27.80;44.20;;;;;;4295996;65;21135;-28
2021/08/21 14:46:00;;;;;;;7.60;6.90;;;27.80;44.10;;;;;;4310866;61;21073;-23
2021/08/21 14:51:04;;;;;;;7.12;6.43;;;27.80;44.10;;;;;;4341144;61;21064;-29
2021/08/21 14:56:05;;;;;;;8.32;7.30;;;27.80;44.20;;;;;;4319741;60;21694;-29
2021/08/21 15:01:07;;;;;;;7.78;7.07;;;27.80;44.10;;;;;;4316737;61;21068;-29
2021/08/21 15:06:08;;;;;;;8.38;7.53;;;27.80;44.10;;;;;;4311306;60;21201;-32
2021/08/21 15:11:09;;;;;;;7.97;7.03;;;27.80;44.20;;;;;;4298011;60;21085;-27
2021/08/21 15:16:10;;;;;;;8.20;7.37;;;27.90;44.30;;;;;;4321801;60;21131;-34
2021/08/21 15:21:12;;;;;;;7.82;7.03;;;27.80;44.20;;;;;;4299583;61;21133;-26
2021/08/21 15:26:13;;;;;;;8.05;7.25;;;27.80;44.20;;;;;;4306574;60;21133;-30
2021/08/21 15:31:13;;;;;;;7.97;7.07;;;27.80;44.20;;;;;;4307038;61;21049;-31
2021/08/21 15:36:14;;;;;;;7.90;7.10;;;27.80;44.20;;;;;;4308044;61;21526;-32
2021/08/21 15:41:15;;;;;;;7.60;6.80;;;27.80;44.30;;;;;;4313756;61;21141;-26
2021/08/21 15:46:16;;;;;;;7.22;6.53;;;27.80;44.20;;;;;;4308673;61;21130;-29
2021/08/21 15:51:17;;;;;;;7.60;6.53;;;27.80;44.20;;;;;;4310358;61;21590;-29
2021/08/21 15:56:18;;;;;;;6.87;6.25;;;27.80;44.20;;;;;;4321200;61;21124;-24
2021/08/21 16:01:19;;;;;;;7.45;6.75;;;27.90;44.30;;;;;;4324488;61;21096;-27
2021/08/21 16:06:20;;;;;;;7.65;6.85;;;27.80;44.20;;;;;;4315441;61;21113;-30
2021/08/21 16:11:21;;;;;;;7.70;7.00;;;27.90;44.30;;;;;;4299659;61;21085;-27
2021/08/21 16:16:21;;;;;;;7.62;6.93;;;27.90;44.30;;;;;;4302745;61;22373;-27
2021/08/21 16:21:22;;;;;;;7.25;6.55;;;27.90;44.30;;;;;;4295685;65;21170;-30
2021/08/21 16:26:23;;;;;;;7.87;7.07;;;27.90;44.30;;;;;;4324434;61;21084;-23
2021/08/21 16:31:24;;;;;;;7.25;6.55;;;27.90;44.30;;;;;;4316716;61;21072;-29
2021/08/21 16:36:25;;;;;;;7.68;6.65;;;27.90;44.30;;;;;;4295685;62;21176;-27
2021/08/21 16:41:27;;;;;;;7.60;6.80;;;27.90;44.30;;;;;;4295608;65;21784;-27
2021/08/21 16:46:28;;;;;;;7.75;6.95;;;27.90;44.30;;;;;;4319171;61;22427;-32
2021/08/21 16:51:29;;;;;;;7.32;6.40;;;27.90;44.40;;;;;;4298989;61;21121;-29
2021/08/21 16:56:32;;;;;;;7.12;6.43;;;27.90;44.30;;;;;;4300961;61;21121;-25
2021/08/21 17:01:32;;;;;;;7.87;7.07;;;27.90;44.30;;;;;;4309101;60;21136;-31
2021/08/21 17:06:34;;;;;;;7.62;6.87;;;27.90;44.30;;;;;;4295706;65;21085;-33
2021/08/21 17:11:35;;;;;;;7.62;6.93;;;27.90;44.30;;;;;;4316958;60;21112;-30
2021/08/21 17:16:36;;;;;;;7.62;6.93;;;27.90;44.30;;;;;;4296631;65;21142;-33
2021/08/21 17:21:37;;;;;;;7.03;6.37;;;27.90;44.30;;;;;;4309103;61;21081;-19
2021/08/21 17:26:37;;;;;;;7.30;6.32;;;27.90;44.40;;;;;;4295248;61;21575;-29
2021/08/21 17:31:38;;;;;;;7.40;6.62;;;27.90;44.30;;;;;;4306255;61;21425;-29
2021/08/21 17:36:39;;;;;;;7.37;6.68;;;27.90;44.30;;;;;;4300945;61;21096;-30
2021/08/21 17:41:40;;;;;;;7.50;6.53;;;27.90;44.30;;;;;;4311237;60;22638;-28
2021/08/21 17:46:42;;;;;;;7.43;6.72;;;27.90;44.30;;;;;;4329697;61;21241;-29
2021/08/21 17:51:43;;;;;;;7.18;6.47;;;27.90;44.40;;;;;;4305074;60;21125;-32
2021/08/21 17:56:43;;;;;;;7.37;6.68;;;27.90;44.30;;;;;;4308943;61;21165;-30
2021/08/21 18:01:44;;;;;;;7.30;6.55;;;27.90;44.30;;;;;;4310847;61;21122;-27
2021/08/21 18:06:45;;;;;;;7.65;6.95;;;27.90;44.30;;;;;;4305808;61;21543;-27
2021/08/21 18:11:46;;;;;;;7.62;6.70;;;27.90;44.30;;;;;;4299787;61;21061;-24
2021/08/21 18:16:48;;;;;;;7.82;7.07;;;27.90;44.30;;;;;;4310499;61;21134;-29
2021/08/21 18:21:49;;;;;;;8.52;7.72;;;27.90;44.30;;;;;;4316525;61;21210;-29
2021/08/21 18:26:49;;;;;;;7.80;6.62;;;27.90;44.30;;;;;;4310446;61;21122;-30
2021/08/21 18:31:50;;;;;;;9.82;7.40;;;27.90;44.20;;;;;;4299678;61;21586;-27
2021/08/21 18:36:51;;;;;;;8.35;7.55;;;27.90;44.20;;;;;;4310454;61;21207;-29
2021/08/21 18:41:52;;;;;;;9.07;7.43;;;27.90;44.20;;;;;;4301723;61;21089;-27
2021/08/21 18:46:53;;;;;;;8.10;7.30;;;27.90;44.20;;;;;;4312425;61;21072;-28
2021/08/21 18:51:53;;;;;;;8.45;7.62;;;27.90;44.20;;;;;;4312368;61;21611;-29
2021/08/21 18:56:57;;;;;;;8.38;7.57;;;27.90;44.20;;;;;;4296556;61;21033;-28
2021/08/21 19:01:59;;;;;;;8.70;7.80;;;27.90;44.20;;;;;;4304563;60;21061;-26
2021/08/21 19:07:00;;;;;;;8.65;7.85;;;27.90;44.20;;;;;;4313037;60;21567;-24
2021/08/21 19:12:01;;;;;;;8.80;7.90;;;27.90;44.30;;;;;;4315761;61;21084;-28
2021/08/21 19:17:02;;;;;;;8.55;7.62;;;27.90;44.20;;;;;;4342520;61;21076;-31
2021/08/21 19:22:03;;;;;;;8.25;7.45;;;27.90;44.30;;;;;;4296027;65;21456;-33
2021/08/21 19:27:07;;;;;;;10.35;8.30;;;27.90;44.30;;;;;;4295099;60;21118;-29
2021/08/21 19:32:08;;;;;;;8.75;7.85;;;27.90;44.30;;;;;;4298556;61;21064;-30
2021/08/21 19:37:09;;;;;;;8.57;7.57;;;27.90;44.30;;;;;;4299199;61;21065;-31
2021/08/21 19:42:10;;;;;;;8.90;7.37;;;27.90;44.30;;;;;;4301567;61;21619;-29
2021/08/21 19:47:12;;;;;;;8.48;7.40;;;27.90;44.30;;;;;;4301695;61;21065;-26
2021/08/21 19:52:13;;;;;;;8.30;7.47;;;27.90;44.30;;;;;;4296365;65;21543;-30
2021/08/21 19:57:14;;;;;;;9.05;7.53;;;27.90;44.40;;;;;;4302891;61;21109;-25
2021/08/21 20:02:15;;;;;;;9.10;8.18;;;27.90;44.40;;;;;;4311731;60;21449;-33
2021/08/21 20:07:16;;;;;;;8.75;7.85;;;27.90;44.30;;;;;;4296108;65;21118;-30
2021/08/21 20:12:17;;;;;;;8.30;7.15;;;27.90;44.40;;;;;;4315775;60;21724;-29
2021/08/21 20:17:18;;;;;;;8.07;7.28;;;27.90;44.40;;;;;;4339500;61;21065;-28
2021/08/21 20:22:19;;;;;;;8.43;7.53;;;27.90;44.40;;;;;;4302905;61;21699;-29
2021/08/21 20:27:20;;;;;;;8.82;7.50;;;27.90;44.40;;;;;;4309283;61;21053;-27
2021/08/21 20:32:20;;;;;;;8.60;7.72;;;27.90;44.40;;;;;;4335310;61;21106;-26
2021/08/21 20:37:21;;;;;;;8.57;7.78;;;27.90;44.40;;;;;;4296031;65;21143;-29
2021/08/21 20:42:22;;;;;;;8.05;7.25;;;27.90;44.40;;;;;;4304903;61;21586;-18
2021/08/21 20:47:25;;;;;;;8.45;7.55;;;27.90;44.50;;;;;;4305502;61;21065;-26
2021/08/21 20:52:26;;;;;;;8.07;7.28;;;27.90;44.40;;;;;;4296244;65;21615;-27
2021/08/21 20:57:27;;;;;;;8.45;7.65;;;27.90;44.50;;;;;;4295443;65;21106;-31
2021/08/21 21:02:28;;;;;;;8.77;7.85;;;27.90;45.10;;;;;;4312263;61;21105;-31
2021/08/21 21:07:31;;;;;;;8.18;7.40;;;27.80;44.40;;;;;;4304990;61;21547;-26
2021/08/21 21:12:32;;;;;;;9.80;7.53;;;27.90;44.40;;;;;;4295891;65;21084;-28
2021/08/21 21:17:33;;;;;;;8.38;7.50;;;27.80;44.40;;;;;;4308854;60;21056;-30
2021/08/21 21:22:35;;;;;;;8.25;7.37;;;27.90;44.50;;;;;;4301219;61;21060;-31
2021/08/21 21:27:37;;;;;;;10.27;7.95;;;27.80;44.40;;;;;;4337140;61;21089;-28
2021/08/21 21:32:38;;;;;;;8.00;7.20;;;27.80;44.50;;;;;;4307207;60;21094;-29
2021/08/21 21:37:39;;;;;;;9.38;7.60;;;27.80;44.50;;;;;;4311818;61;21076;-27
2021/08/21 21:42:40;;;;;;;7.95;7.15;;;27.80;44.60;;;;;;4295101;65;21579;-28
2021/08/21 21:47:41;;;;;;;8.45;7.37;;;27.80;44.50;;;;;;4297663;61;21197;-27
2021/08/21 21:52:42;;;;;;;8.32;7.43;;;27.90;44.60;;;;;;4296132;65;21166;-26
2021/08/21 21:57:42;;;;;;;8.25;7.45;;;27.80;44.60;;;;;;4299882;61;21112;-19
2021/08/21 22:02:43;;;;;;;8.05;7.25;;;27.80;44.60;;;;;;4308038;61;21117;-29
2021/08/21 22:07:44;;;;;;;8.73;7.60;;;27.80;44.60;;;;;;4305871;61;21065;-28
2021/08/21 22:12:45;;;;;;;7.93;7.12;;;27.80;44.70;;;;;;4316465;61;21154;-25
2021/08/21 22:17:45;;;;;;;8.25;7.30;;;27.80;44.70;;;;;;4295885;65;21081;-30
2021/08/21 22:22:46;;;;;;;7.68;6.97;;;27.80;44.70;;;;;;4340418;61;21523;-29
2021/08/21 22:27:47;;;;;;;8.27;7.22;;;27.80;44.70;;;;;;4301682;60;22464;-31
2021/08/21 22:32:48;;;;;;;7.15;6.45;;;27.90;44.80;;;;;;4350456;61;21560;-26
2021/08/21 22:37:52;;;;;;;7.30;6.55;;;27.90;44.80;;;;;;4303264;61;21134;-28
2021/08/21 22:42:55;;;;;;;8.05;6.75;;;27.90;45.50;;;;;;4298976;61;21610;-29
2021/08/21 22:47:59;;;;;;;7.40;6.70;;;27.90;44.80;;;;;;4309348;61;21141;-25
2021/08/21 22:53:00;;;;;;;7.75;6.87;;;27.80;44.80;;;;;;4323086;61;21217;-26
2021/08/21 22:58:02;;;;;;;7.70;6.95;;;27.90;44.90;;;;;;4296898;65;21569;-28
2021/08/21 23:03:04;;;;;;;7.80;7.00;;;27.80;44.90;;;;;;4317830;60;21609;-29
2021/08/21 23:08:05;;;;;;;8.70;7.32;;;27.80;44.90;;;;;;4311181;60;21122;-30
2021/08/21 23:13:07;;;;;;;7.50;6.80;;;27.80;44.90;;;;;;4304920;60;21173;-30
2021/08/21 23:18:07;;;;;;;7.80;6.57;;;27.90;44.90;;;;;;4297248;61;21108;-28
2021/08/21 23:23:08;;;;;;;7.50;6.75;;;27.80;45.00;;;;;;4300343;61;21080;-28
2021/08/21 23:28:09;;;;;;;7.28;6.57;;;27.80;45.00;;;;;;4333124;61;21186;-28
2021/08/21 23:33:20;;;;;;;7.28;6.45;;;27.80;45.10;;;;;;4298120;61;21145;-33
2021/08/21 23:38:22;;;;;;;6.87;6.25;;;27.80;45.00;;;;;;4325653;61;21551;-27
2021/08/21 23:43:22;;;;;;;7.32;6.53;;;27.80;45.00;;;;;;4340637;60;21137;-32
2021/08/21 23:48:27;;;;;;;7.05;6.32;;;27.80;45.00;;;;;;4325156;61;21061;-25
2021/08/21 23:53:28;;;;;;;7.65;6.82;;;27.80;45.10;;;;;;4328270;60;21623;-28
2021/08/21 23:58:32;;;;;;;7.35;6.65;;;27.80;45.10;;;;;;4300831;60;21069;-26
